sensor_id;sensor_type;location;lat;lon;timestamp;P1;durP1;ratioP1;P2;durP2;ratioP2
76403;SDS011;65232;48.358;2.122;2024-02-21T00:00:19;19.02;;;10.55;;
76403;SDS011;65232;48.358;2.122;2024-02-21T00:00:44;22.25;;;10.38;;
76403;SDS011;65232;48.358;2.122;2024-02-21T00:01:14;20.92;;;10.38;;
76403;SDS011;65232;48.358;2.122;2024-02-21T00:01:41;20.58;;;10.80;;
76403;SDS011;65232;48.358;2.122;2024-02-21T00:02:06;20.88;;;10.73;;
76403;SDS011;65232;48.358;2.122;2024-02-21T00:02:31;22.98;;;10.68;;
76403;SDS011;65232;48.358;2.122;2024-02-21T00:02:57;21.45;;;10.77;;
76403;SDS011;65232;48.358;2.122;2024-02-21T00:03:24;19.25;;;10.77;;
76403;SDS011;65232;48.358;2.122;2024-02-21T00:03:49;21.33;;;10.65;;
76403;SDS011;65232;48.358;2.122;2024-02-21T00:04:15;24.58;;;11.80;;
76403;SDS011;65232;48.358;2.122;2024-02-21T00:04:43;24.42;;;11.55;;
76403;SDS011;65232;48.358;2.122;2024-02-21T00:05:08;25.27;;;12.57;;
76403;SDS011;65232;48.358;2.122;2024-02-21T00:05:34;25.58;;;13.20;;
76403;SDS011;65232;48.358;2.122;2024-02-21T00:05:59;24.50;;;12.20;;
76403;SDS011;65232;48.358;2.122;2024-02-21T00:06:24;20.55;;;12.57;;
76403;SDS011;65232;48.358;2.122;2024-02-21T00:07:16;22.73;;;11.45;;
76403;SDS011;65232;48.358;2.122;2024-02-21T00:07:41;22.90;;;12.35;;
76403;SDS011;65232;48.358;2.122;2024-02-21T00:08:07;21.20;;;11.18;;
76403;SDS011;65232;48.358;2.122;2024-02-21T00:08:32;19.00;;;10.63;;
76403;SDS011;65232;48.358;2.122;2024-02-21T00:08:58;31.92;;;13.35;;
76403;SDS011;65232;48.358;2.122;2024-02-21T00:09:23;20.90;;;11.90;;
76403;SDS011;65232;48.358;2.122;2024-02-21T00:09:48;19.23;;;11.60;;
76403;SDS011;65232;48.358;2.122;2024-02-21T00:10:14;24.73;;;11.48;;
76403;SDS011;65232;48.358;2.122;2024-02-21T00:10:39;23.17;;;11.63;;
76403;SDS011;65232;48.358;2.122;2024-02-21T00:11:05;23.85;;;12.30;;
76403;SDS011;65232;48.358;2.122;2024-02-21T00:11:30;27.90;;;12.50;;
76403;SDS011;65232;48.358;2.122;2024-02-21T00:11:55;18.70;;;11.07;;
76403;SDS011;65232;48.358;2.122;2024-02-21T00:12:21;20.58;;;12.13;;
76403;SDS011;65232;48.358;2.122;2024-02-21T00:12:46;24.83;;;11.57;;
76403;SDS011;65232;48.358;2.122;2024-02-21T00:13:12;25.63;;;12.57;;
76403;SDS011;65232;48.358;2.122;2024-02-21T00:13:37;24.40;;;13.35;;
76403;SDS011;65232;48.358;2.122;2024-02-21T00:14:02;22.58;;;11.90;;
76403;SDS011;65232;48.358;2.122;2024-02-21T00:14:28;23.83;;;12.25;;
76403;SDS011;65232;48.358;2.122;2024-02-21T00:14:53;26.83;;;13.27;;
76403;SDS011;65232;48.358;2.122;2024-02-21T00:15:19;26.60;;;14.65;;
76403;SDS011;65232;48.358;2.122;2024-02-21T00:15:44;28.48;;;16.85;;
76403;SDS011;65232;48.358;2.122;2024-02-21T00:16:09;25.40;;;14.30;;
76403;SDS011;65232;48.358;2.122;2024-02-21T00:16:36;26.58;;;14.30;;
76403;SDS011;65232;48.358;2.122;2024-02-21T00:17:01;25.48;;;14.38;;
76403;SDS011;65232;48.358;2.122;2024-02-21T00:17:27;26.92;;;15.32;;
76403;SDS011;65232;48.358;2.122;2024-02-21T00:17:52;30.02;;;15.55;;
76403;SDS011;65232;48.358;2.122;2024-02-21T00:18:18;32.92;;;16.52;;
76403;SDS011;65232;48.358;2.122;2024-02-21T00:18:43;33.25;;;17.20;;
76403;SDS011;65232;48.358;2.122;2024-02-21T00:19:10;31.83;;;15.77;;
76403;SDS011;65232;48.358;2.122;2024-02-21T00:19:35;25.52;;;13.57;;
76403;SDS011;65232;48.358;2.122;2024-02-21T00:20:01;23.13;;;12.27;;
76403;SDS011;65232;48.358;2.122;2024-02-21T00:20:26;21.83;;;12.43;;
76403;SDS011;65232;48.358;2.122;2024-02-21T00:20:52;20.05;;;11.80;;
76403;SDS011;65232;48.358;2.122;2024-02-21T00:21:17;22.88;;;11.68;;
76403;SDS011;65232;48.358;2.122;2024-02-21T00:21:43;22.02;;;11.93;;
76403;SDS011;65232;48.358;2.122;2024-02-21T00:22:08;22.02;;;11.82;;
76403;SDS011;65232;48.358;2.122;2024-02-21T00:22:34;17.25;;;10.20;;
76403;SDS011;65232;48.358;2.122;2024-02-21T00:22:59;21.95;;;10.90;;
76403;SDS011;65232;48.358;2.122;2024-02-21T00:23:25;22.67;;;11.25;;
76403;SDS011;65232;48.358;2.122;2024-02-21T00:23:50;17.55;;;11.18;;
76403;SDS011;65232;48.358;2.122;2024-02-21T00:24:15;20.38;;;11.00;;
76403;SDS011;65232;48.358;2.122;2024-02-21T00:24:41;20.75;;;11.68;;
76403;SDS011;65232;48.358;2.122;2024-02-21T00:25:07;18.65;;;11.35;;
76403;SDS011;65232;48.358;2.122;2024-02-21T00:25:33;15.38;;;10.23;;
76403;SDS011;65232;48.358;2.122;2024-02-21T00:25:58;16.98;;;11.23;;
76403;SDS011;65232;48.358;2.122;2024-02-21T00:26:24;17.08;;;10.25;;
76403;SDS011;65232;48.358;2.122;2024-02-21T00:26:50;18.98;;;11.20;;
76403;SDS011;65232;48.358;2.122;2024-02-21T00:27:16;19.13;;;10.43;;
76403;SDS011;65232;48.358;2.122;2024-02-21T00:27:41;15.02;;;10.25;;
76403;SDS011;65232;48.358;2.122;2024-02-21T00:28:07;15.95;;;9.95;;
76403;SDS011;65232;48.358;2.122;2024-02-21T00:28:32;17.02;;;9.68;;
76403;SDS011;65232;48.358;2.122;2024-02-21T00:28:57;18.98;;;10.38;;
76403;SDS011;65232;48.358;2.122;2024-02-21T00:29:23;18.00;;;10.05;;
76403;SDS011;65232;48.358;2.122;2024-02-21T00:29:48;18.83;;;9.88;;
76403;SDS011;65232;48.358;2.122;2024-02-21T00:30:14;16.85;;;10.05;;
76403;SDS011;65232;48.358;2.122;2024-02-21T00:30:39;15.35;;;9.73;;
76403;SDS011;65232;48.358;2.122;2024-02-21T00:31:05;15.10;;;9.75;;
76403;SDS011;65232;48.358;2.122;2024-02-21T00:31:30;14.15;;;9.13;;
76403;SDS011;65232;48.358;2.122;2024-02-21T00:31:55;14.65;;;9.10;;
76403;SDS011;65232;48.358;2.122;2024-02-21T00:32:21;13.52;;;9.15;;
76403;SDS011;65232;48.358;2.122;2024-02-21T00:32:46;15.82;;;10.45;;
76403;SDS011;65232;48.358;2.122;2024-02-21T00:33:11;13.82;;;9.30;;
76403;SDS011;65232;48.358;2.122;2024-02-21T00:33:37;15.35;;;9.50;;
76403;SDS011;65232;48.358;2.122;2024-02-21T00:34:03;19.73;;;10.77;;
76403;SDS011;65232;48.358;2.122;2024-02-21T00:34:28;20.00;;;10.43;;
76403;SDS011;65232;48.358;2.122;2024-02-21T00:34:54;14.85;;;10.45;;
76403;SDS011;65232;48.358;2.122;2024-02-21T00:35:19;20.95;;;10.27;;
76403;SDS011;65232;48.358;2.122;2024-02-21T00:35:45;19.75;;;10.05;;
76403;SDS011;65232;48.358;2.122;2024-02-21T00:36:10;16.38;;;10.25;;
76403;SDS011;65232;48.358;2.122;2024-02-21T00:36:35;18.73;;;10.73;;
76403;SDS011;65232;48.358;2.122;2024-02-21T00:37:01;16.45;;;10.57;;
76403;SDS011;65232;48.358;2.122;2024-02-21T00:37:26;16.92;;;10.25;;
76403;SDS011;65232;48.358;2.122;2024-02-21T00:37:52;15.15;;;9.77;;
76403;SDS011;65232;48.358;2.122;2024-02-21T00:38:17;14.57;;;9.57;;
76403;SDS011;65232;48.358;2.122;2024-02-21T00:38:43;16.08;;;10.27;;
76403;SDS011;65232;48.358;2.122;2024-02-21T00:39:08;13.70;;;9.38;;
76403;SDS011;65232;48.358;2.122;2024-02-21T00:39:33;17.02;;;9.60;;
76403;SDS011;65232;48.358;2.122;2024-02-21T00:39:59;14.82;;;9.70;;
76403;SDS011;65232;48.358;2.122;2024-02-21T00:40:24;14.32;;;8.75;;
76403;SDS011;65232;48.358;2.122;2024-02-21T00:40:50;13.82;;;8.68;;
76403;SDS011;65232;48.358;2.122;2024-02-21T00:41:15;14.30;;;8.80;;
76403;SDS011;65232;48.358;2.122;2024-02-21T00:41:40;15.27;;;8.82;;
76403;SDS011;65232;48.358;2.122;2024-02-21T00:42:06;14.88;;;8.70;;
76403;SDS011;65232;48.358;2.122;2024-02-21T00:42:32;15.73;;;8.77;;
76403;SDS011;65232;48.358;2.122;2024-02-21T00:42:57;14.07;;;8.35;;
76403;SDS011;65232;48.358;2.122;2024-02-21T00:43:23;14.30;;;9.18;;
76403;SDS011;65232;48.358;2.122;2024-02-21T00:43:49;15.88;;;9.30;;
76403;SDS011;65232;48.358;2.122;2024-02-21T00:44:15;17.27;;;9.93;;
76403;SDS011;65232;48.358;2.122;2024-02-21T00:44:40;16.77;;;9.68;;
76403;SDS011;65232;48.358;2.122;2024-02-21T00:45:06;18.25;;;10.25;;
76403;SDS011;65232;48.358;2.122;2024-02-21T00:45:32;16.60;;;10.07;;
76403;SDS011;65232;48.358;2.122;2024-02-21T00:45:58;16.13;;;9.65;;
76403;SDS011;65232;48.358;2.122;2024-02-21T00:46:23;16.08;;;10.05;;
76403;SDS011;65232;48.358;2.122;2024-02-21T00:46:48;14.32;;;10.18;;
76403;SDS011;65232;48.358;2.122;2024-02-21T00:47:14;15.45;;;9.85;;
76403;SDS011;65232;48.358;2.122;2024-02-21T00:47:39;15.77;;;9.25;;
76403;SDS011;65232;48.358;2.122;2024-02-21T00:48:05;20.27;;;10.98;;
76403;SDS011;65232;48.358;2.122;2024-02-21T00:48:30;18.35;;;9.85;;
76403;SDS011;65232;48.358;2.122;2024-02-21T00:48:56;19.17;;;10.90;;
76403;SDS011;65232;48.358;2.122;2024-02-21T00:49:21;18.27;;;9.70;;
76403;SDS011;65232;48.358;2.122;2024-02-21T00:49:46;14.65;;;9.02;;
76403;SDS011;65232;48.358;2.122;2024-02-21T00:50:12;16.20;;;9.00;;
76403;SDS011;65232;48.358;2.122;2024-02-21T00:50:37;14.95;;;8.60;;
76403;SDS011;65232;48.358;2.122;2024-02-21T00:51:03;17.45;;;9.00;;
76403;SDS011;65232;48.358;2.122;2024-02-21T00:51:28;14.57;;;9.27;;
76403;SDS011;65232;48.358;2.122;2024-02-21T00:51:54;16.77;;;9.18;;
76403;SDS011;65232;48.358;2.122;2024-02-21T00:52:19;15.55;;;9.13;;
76403;SDS011;65232;48.358;2.122;2024-02-21T00:52:45;15.82;;;8.98;;
76403;SDS011;65232;48.358;2.122;2024-02-21T00:53:10;16.23;;;8.50;;
76403;SDS011;65232;48.358;2.122;2024-02-21T00:53:35;11.98;;;7.55;;
76403;SDS011;65232;48.358;2.122;2024-02-21T00:54:03;13.05;;;8.30;;
76403;SDS011;65232;48.358;2.122;2024-02-21T00:54:28;13.15;;;8.65;;
76403;SDS011;65232;48.358;2.122;2024-02-21T00:54:54;14.70;;;8.80;;
76403;SDS011;65232;48.358;2.122;2024-02-21T00:55:19;14.30;;;8.07;;
76403;SDS011;65232;48.358;2.122;2024-02-21T00:55:44;13.20;;;8.75;;
76403;SDS011;65232;48.358;2.122;2024-02-21T00:56:10;20.08;;;9.07;;
76403;SDS011;65232;48.358;2.122;2024-02-21T00:56:35;14.40;;;8.70;;
76403;SDS011;65232;48.358;2.122;2024-02-21T00:57:00;16.25;;;8.77;;
76403;SDS011;65232;48.358;2.122;2024-02-21T00:57:26;15.60;;;8.20;;
76403;SDS011;65232;48.358;2.122;2024-02-21T00:57:51;16.88;;;7.75;;
76403;SDS011;65232;48.358;2.122;2024-02-21T00:58:17;14.27;;;8.23;;
76403;SDS011;65232;48.358;2.122;2024-02-21T00:58:42;14.20;;;8.00;;
76403;SDS011;65232;48.358;2.122;2024-02-21T00:59:07;15.40;;;9.70;;
76403;SDS011;65232;48.358;2.122;2024-02-21T00:59:33;18.05;;;9.45;;
76403;SDS011;65232;48.358;2.122;2024-02-21T00:59:58;27.25;;;13.55;;
76403;SDS011;65232;48.358;2.122;2024-02-21T01:00:24;26.88;;;13.30;;
76403;SDS011;65232;48.358;2.122;2024-02-21T01:00:49;23.70;;;12.32;;
76403;SDS011;65232;48.358;2.122;2024-02-21T01:01:20;17.48;;;8.98;;
76403;SDS011;65232;48.358;2.122;2024-02-21T01:01:54;16.38;;;8.90;;
76403;SDS011;65232;48.358;2.122;2024-02-21T01:02:20;15.07;;;8.10;;
76403;SDS011;65232;48.358;2.122;2024-02-21T01:02:45;15.15;;;8.18;;
76403;SDS011;65232;48.358;2.122;2024-02-21T01:03:10;13.10;;;7.68;;
76403;SDS011;65232;48.358;2.122;2024-02-21T01:03:36;12.60;;;8.52;;
76403;SDS011;65232;48.358;2.122;2024-02-21T01:04:04;13.77;;;8.48;;
76403;SDS011;65232;48.358;2.122;2024-02-21T01:04:29;11.38;;;7.47;;
76403;SDS011;65232;48.358;2.122;2024-02-21T01:04:55;14.35;;;8.55;;
76403;SDS011;65232;48.358;2.122;2024-02-21T01:05:20;13.23;;;7.10;;
76403;SDS011;65232;48.358;2.122;2024-02-21T01:05:46;13.38;;;8.15;;
76403;SDS011;65232;48.358;2.122;2024-02-21T01:06:11;13.00;;;7.93;;
76403;SDS011;65232;48.358;2.122;2024-02-21T01:06:36;12.90;;;7.65;;
76403;SDS011;65232;48.358;2.122;2024-02-21T01:07:02;12.68;;;7.63;;
76403;SDS011;65232;48.358;2.122;2024-02-21T01:07:27;10.93;;;8.07;;
76403;SDS011;65232;48.358;2.122;2024-02-21T01:07:53;10.75;;;7.45;;
76403;SDS011;65232;48.358;2.122;2024-02-21T01:08:18;14.90;;;8.35;;
76403;SDS011;65232;48.358;2.122;2024-02-21T01:08:43;14.80;;;7.85;;
76403;SDS011;65232;48.358;2.122;2024-02-21T01:09:09;14.10;;;7.85;;
76403;SDS011;65232;48.358;2.122;2024-02-21T01:09:35;10.93;;;7.82;;
76403;SDS011;65232;48.358;2.122;2024-02-21T01:10:01;10.55;;;7.07;;
76403;SDS011;65232;48.358;2.122;2024-02-21T01:10:26;15.32;;;8.00;;
76403;SDS011;65232;48.358;2.122;2024-02-21T01:10:52;12.18;;;7.70;;
76403;SDS011;65232;48.358;2.122;2024-02-21T01:11:17;12.05;;;7.88;;
76403;SDS011;65232;48.358;2.122;2024-02-21T01:11:43;14.52;;;8.90;;
76403;SDS011;65232;48.358;2.122;2024-02-21T01:12:08;11.85;;;8.18;;
76403;SDS011;65232;48.358;2.122;2024-02-21T01:12:33;13.90;;;8.45;;
76403;SDS011;65232;48.358;2.122;2024-02-21T01:12:59;14.25;;;8.45;;
76403;SDS011;65232;48.358;2.122;2024-02-21T01:13:24;11.75;;;7.65;;
76403;SDS011;65232;48.358;2.122;2024-02-21T01:13:50;14.65;;;8.75;;
76403;SDS011;65232;48.358;2.122;2024-02-21T01:14:15;12.43;;;7.93;;
76403;SDS011;65232;48.358;2.122;2024-02-21T01:14:41;16.23;;;8.52;;
76403;SDS011;65232;48.358;2.122;2024-02-21T01:15:06;14.00;;;8.75;;
76403;SDS011;65232;48.358;2.122;2024-02-21T01:15:32;14.25;;;9.02;;
76403;SDS011;65232;48.358;2.122;2024-02-21T01:15:57;14.40;;;8.40;;
76403;SDS011;65232;48.358;2.122;2024-02-21T01:16:23;13.90;;;8.27;;
76403;SDS011;65232;48.358;2.122;2024-02-21T01:16:48;13.32;;;8.23;;
76403;SDS011;65232;48.358;2.122;2024-02-21T01:17:13;15.98;;;8.82;;
76403;SDS011;65232;48.358;2.122;2024-02-21T01:17:39;14.80;;;8.75;;
76403;SDS011;65232;48.358;2.122;2024-02-21T01:18:05;14.95;;;8.32;;
76403;SDS011;65232;48.358;2.122;2024-02-21T01:18:32;15.10;;;8.65;;
76403;SDS011;65232;48.358;2.122;2024-02-21T01:18:58;14.73;;;9.00;;
76403;SDS011;65232;48.358;2.122;2024-02-21T01:19:24;14.70;;;8.27;;
76403;SDS011;65232;48.358;2.122;2024-02-21T01:19:49;13.43;;;8.30;;
76403;SDS011;65232;48.358;2.122;2024-02-21T01:20:14;14.38;;;8.55;;
76403;SDS011;65232;48.358;2.122;2024-02-21T01:20:40;12.63;;;8.32;;
76403;SDS011;65232;48.358;2.122;2024-02-21T01:21:06;16.05;;;9.07;;
76403;SDS011;65232;48.358;2.122;2024-02-21T01:21:32;13.90;;;8.07;;
76403;SDS011;65232;48.358;2.122;2024-02-21T01:21:57;13.23;;;8.15;;
76403;SDS011;65232;48.358;2.122;2024-02-21T01:22:23;14.00;;;8.05;;
76403;SDS011;65232;48.358;2.122;2024-02-21T01:22:48;12.20;;;7.53;;
76403;SDS011;65232;48.358;2.122;2024-02-21T01:23:13;14.43;;;8.82;;
76403;SDS011;65232;48.358;2.122;2024-02-21T01:23:39;14.48;;;8.73;;
76403;SDS011;65232;48.358;2.122;2024-02-21T01:24:05;14.07;;;8.75;;
76403;SDS011;65232;48.358;2.122;2024-02-21T01:24:30;13.90;;;8.68;;
76403;SDS011;65232;48.358;2.122;2024-02-21T01:24:55;15.30;;;8.63;;
76403;SDS011;65232;48.358;2.122;2024-02-21T01:25:21;13.63;;;8.13;;
76403;SDS011;65232;48.358;2.122;2024-02-21T01:25:46;13.57;;;8.52;;
76403;SDS011;65232;48.358;2.122;2024-02-21T01:26:12;10.93;;;7.53;;
76403;SDS011;65232;48.358;2.122;2024-02-21T01:26:39;12.98;;;7.82;;
76403;SDS011;65232;48.358;2.122;2024-02-21T01:27:04;13.98;;;7.82;;
76403;SDS011;65232;48.358;2.122;2024-02-21T01:27:30;13.30;;;8.00;;
76403;SDS011;65232;48.358;2.122;2024-02-21T01:27:55;13.05;;;7.35;;
76403;SDS011;65232;48.358;2.122;2024-02-21T01:28:20;10.50;;;7.68;;
76403;SDS011;65232;48.358;2.122;2024-02-21T01:28:46;11.75;;;7.50;;
76403;SDS011;65232;48.358;2.122;2024-02-21T01:29:11;12.55;;;8.25;;
76403;SDS011;65232;48.358;2.122;2024-02-21T01:29:36;13.98;;;7.28;;
76403;SDS011;65232;48.358;2.122;2024-02-21T01:30:02;13.60;;;7.78;;
76403;SDS011;65232;48.358;2.122;2024-02-21T01:30:27;12.80;;;7.65;;
76403;SDS011;65232;48.358;2.122;2024-02-21T01:30:53;11.80;;;7.85;;
76403;SDS011;65232;48.358;2.122;2024-02-21T01:31:18;14.55;;;7.57;;
76403;SDS011;65232;48.358;2.122;2024-02-21T01:31:44;11.32;;;7.35;;
76403;SDS011;65232;48.358;2.122;2024-02-21T01:32:09;11.48;;;7.97;;
76403;SDS011;65232;48.358;2.122;2024-02-21T01:32:34;11.85;;;7.25;;
76403;SDS011;65232;48.358;2.122;2024-02-21T01:33:00;16.73;;;7.78;;
76403;SDS011;65232;48.358;2.122;2024-02-21T01:33:25;10.32;;;6.95;;
76403;SDS011;65232;48.358;2.122;2024-02-21T01:33:51;11.55;;;7.18;;
76403;SDS011;65232;48.358;2.122;2024-02-21T01:34:16;10.52;;;7.47;;
76403;SDS011;65232;48.358;2.122;2024-02-21T01:34:41;13.35;;;7.65;;
76403;SDS011;65232;48.358;2.122;2024-02-21T01:35:07;12.25;;;7.75;;
76403;SDS011;65232;48.358;2.122;2024-02-21T01:35:34;14.68;;;8.55;;
76403;SDS011;65232;48.358;2.122;2024-02-21T01:35:59;11.43;;;7.72;;
76403;SDS011;65232;48.358;2.122;2024-02-21T01:36:28;12.90;;;7.38;;
76403;SDS011;65232;48.358;2.122;2024-02-21T01:36:53;14.55;;;8.00;;
76403;SDS011;65232;48.358;2.122;2024-02-21T01:37:19;12.45;;;7.22;;
76403;SDS011;65232;48.358;2.122;2024-02-21T01:37:44;15.00;;;7.63;;
76403;SDS011;65232;48.358;2.122;2024-02-21T01:38:10;11.75;;;6.93;;
76403;SDS011;65232;48.358;2.122;2024-02-21T01:38:37;11.63;;;6.78;;
76403;SDS011;65232;48.358;2.122;2024-02-21T01:39:03;11.60;;;6.57;;
76403;SDS011;65232;48.358;2.122;2024-02-21T01:39:28;11.18;;;7.10;;
76403;SDS011;65232;48.358;2.122;2024-02-21T01:39:53;11.98;;;7.15;;
76403;SDS011;65232;48.358;2.122;2024-02-21T01:40:19;13.93;;;7.53;;
76403;SDS011;65232;48.358;2.122;2024-02-21T01:40:44;12.23;;;6.65;;
76403;SDS011;65232;48.358;2.122;2024-02-21T01:41:10;11.93;;;6.68;;
76403;SDS011;65232;48.358;2.122;2024-02-21T01:41:35;12.38;;;6.65;;
76403;SDS011;65232;48.358;2.122;2024-02-21T01:42:00;12.82;;;6.45;;
76403;SDS011;65232;48.358;2.122;2024-02-21T01:42:26;12.18;;;6.68;;
76403;SDS011;65232;48.358;2.122;2024-02-21T01:42:51;13.48;;;7.35;;
76403;SDS011;65232;48.358;2.122;2024-02-21T01:43:21;12.98;;;6.65;;
76403;SDS011;65232;48.358;2.122;2024-02-21T01:43:46;13.85;;;7.40;;
76403;SDS011;65232;48.358;2.122;2024-02-21T01:44:12;13.68;;;7.57;;
76403;SDS011;65232;48.358;2.122;2024-02-21T01:44:38;13.00;;;8.00;;
76403;SDS011;65232;48.358;2.122;2024-02-21T01:45:04;13.27;;;7.72;;
76403;SDS011;65232;48.358;2.122;2024-02-21T01:45:30;11.30;;;7.07;;
76403;SDS011;65232;48.358;2.122;2024-02-21T01:45:55;12.55;;;7.22;;
76403;SDS011;65232;48.358;2.122;2024-02-21T01:46:22;8.02;;;5.82;;
76403;SDS011;65232;48.358;2.122;2024-02-21T01:47:13;12.98;;;6.40;;
76403;SDS011;65232;48.358;2.122;2024-02-21T01:47:39;12.40;;;7.53;;
76403;SDS011;65232;48.358;2.122;2024-02-21T01:48:06;11.25;;;6.63;;
76403;SDS011;65232;48.358;2.122;2024-02-21T01:48:31;11.88;;;7.03;;
76403;SDS011;65232;48.358;2.122;2024-02-21T01:48:57;12.02;;;7.20;;
76403;SDS011;65232;48.358;2.122;2024-02-21T01:49:23;11.63;;;6.57;;
76403;SDS011;65232;48.358;2.122;2024-02-21T01:49:49;9.30;;;6.63;;
76403;SDS011;65232;48.358;2.122;2024-02-21T01:50:15;11.98;;;6.80;;
76403;SDS011;65232;48.358;2.122;2024-02-21T01:50:42;11.88;;;7.00;;
76403;SDS011;65232;48.358;2.122;2024-02-21T01:51:07;9.15;;;6.05;;
76403;SDS011;65232;48.358;2.122;2024-02-21T01:51:33;10.40;;;6.18;;
76403;SDS011;65232;48.358;2.122;2024-02-21T01:51:58;10.68;;;6.15;;
76403;SDS011;65232;48.358;2.122;2024-02-21T01:52:24;13.80;;;6.60;;
76403;SDS011;65232;48.358;2.122;2024-02-21T01:52:49;9.77;;;6.10;;
76403;SDS011;65232;48.358;2.122;2024-02-21T01:53:22;13.05;;;6.93;;
76403;SDS011;65232;48.358;2.122;2024-02-21T01:53:55;12.48;;;6.55;;
76403;SDS011;65232;48.358;2.122;2024-02-21T01:54:22;12.48;;;6.97;;
76403;SDS011;65232;48.358;2.122;2024-02-21T01:54:48;11.65;;;6.60;;
76403;SDS011;65232;48.358;2.122;2024-02-21T01:55:14;10.07;;;6.28;;
76403;SDS011;65232;48.358;2.122;2024-02-21T01:55:41;12.77;;;6.20;;
76403;SDS011;65232;48.358;2.122;2024-02-21T01:56:06;8.48;;;5.88;;
76403;SDS011;65232;48.358;2.122;2024-02-21T01:56:32;10.95;;;6.25;;
76403;SDS011;65232;48.358;2.122;2024-02-21T01:56:58;12.15;;;6.28;;
76403;SDS011;65232;48.358;2.122;2024-02-21T01:57:24;14.27;;;6.80;;
76403;SDS011;65232;48.358;2.122;2024-02-21T01:57:49;12.57;;;6.28;;
76403;SDS011;65232;48.358;2.122;2024-02-21T01:58:16;10.10;;;6.15;;
76403;SDS011;65232;48.358;2.122;2024-02-21T01:58:42;11.55;;;6.43;;
76403;SDS011;65232;48.358;2.122;2024-02-21T01:59:07;10.52;;;6.20;;
76403;SDS011;65232;48.358;2.122;2024-02-21T01:59:33;9.35;;;6.25;;
76403;SDS011;65232;48.358;2.122;2024-02-21T02:00:01;9.27;;;6.18;;
76403;SDS011;65232;48.358;2.122;2024-02-21T02:00:26;10.80;;;6.68;;
76403;SDS011;65232;48.358;2.122;2024-02-21T02:00:53;13.63;;;6.50;;
76403;SDS011;65232;48.358;2.122;2024-02-21T02:01:21;10.35;;;6.70;;
76403;SDS011;65232;48.358;2.122;2024-02-21T02:01:47;10.52;;;6.00;;
76403;SDS011;65232;48.358;2.122;2024-02-21T02:02:13;9.18;;;6.65;;
76403;SDS011;65232;48.358;2.122;2024-02-21T02:02:38;10.73;;;6.57;;
76403;SDS011;65232;48.358;2.122;2024-02-21T02:03:05;11.48;;;6.88;;
76403;SDS011;65232;48.358;2.122;2024-02-21T02:03:31;12.35;;;6.38;;
76403;SDS011;65232;48.358;2.122;2024-02-21T02:03:57;10.15;;;6.28;;
76403;SDS011;65232;48.358;2.122;2024-02-21T02:04:24;10.57;;;6.15;;
76403;SDS011;65232;48.358;2.122;2024-02-21T02:04:50;10.52;;;6.78;;
76403;SDS011;65232;48.358;2.122;2024-02-21T02:05:16;10.13;;;5.93;;
76403;SDS011;65232;48.358;2.122;2024-02-21T02:05:46;11.30;;;6.20;;
76403;SDS011;65232;48.358;2.122;2024-02-21T02:06:13;10.95;;;6.15;;
76403;SDS011;65232;48.358;2.122;2024-02-21T02:06:39;13.88;;;6.35;;
76403;SDS011;65232;48.358;2.122;2024-02-21T02:07:06;9.95;;;6.28;;
76403;SDS011;65232;48.358;2.122;2024-02-21T02:07:32;10.45;;;6.65;;
76403;SDS011;65232;48.358;2.122;2024-02-21T02:07:57;9.88;;;6.72;;
76403;SDS011;65232;48.358;2.122;2024-02-21T02:08:23;10.73;;;6.25;;
76403;SDS011;65232;48.358;2.122;2024-02-21T02:08:48;11.93;;;6.45;;
76403;SDS011;65232;48.358;2.122;2024-02-21T02:09:14;10.93;;;5.82;;
76403;SDS011;65232;48.358;2.122;2024-02-21T02:09:39;11.13;;;6.28;;
76403;SDS011;65232;48.358;2.122;2024-02-21T02:10:05;9.82;;;5.70;;
76403;SDS011;65232;48.358;2.122;2024-02-21T02:10:31;8.80;;;6.35;;
76403;SDS011;65232;48.358;2.122;2024-02-21T02:10:57;9.88;;;6.05;;
76403;SDS011;65232;48.358;2.122;2024-02-21T02:11:23;8.77;;;5.95;;
76403;SDS011;65232;48.358;2.122;2024-02-21T02:11:48;11.05;;;6.13;;
76403;SDS011;65232;48.358;2.122;2024-02-21T02:12:14;9.25;;;6.03;;
76403;SDS011;65232;48.358;2.122;2024-02-21T02:12:39;10.23;;;6.43;;
76403;SDS011;65232;48.358;2.122;2024-02-21T02:13:05;12.27;;;6.82;;
76403;SDS011;65232;48.358;2.122;2024-02-21T02:13:30;9.32;;;6.18;;
76403;SDS011;65232;48.358;2.122;2024-02-21T02:13:56;12.40;;;6.30;;
76403;SDS011;65232;48.358;2.122;2024-02-21T02:14:21;9.38;;;6.03;;
76403;SDS011;65232;48.358;2.122;2024-02-21T02:14:46;10.32;;;6.22;;
76403;SDS011;65232;48.358;2.122;2024-02-21T02:15:23;11.35;;;6.38;;
76403;SDS011;65232;48.358;2.122;2024-02-21T02:15:48;9.57;;;6.10;;
76403;SDS011;65232;48.358;2.122;2024-02-21T02:16:40;10.70;;;5.90;;
76403;SDS011;65232;48.358;2.122;2024-02-21T02:17:05;10.85;;;6.13;;
76403;SDS011;65232;48.358;2.122;2024-02-21T02:17:31;27.55;;;13.20;;
76403;SDS011;65232;48.358;2.122;2024-02-21T02:17:56;25.15;;;13.18;;
76403;SDS011;65232;48.358;2.122;2024-02-21T02:18:22;49.55;;;19.63;;
76403;SDS011;65232;48.358;2.122;2024-02-21T02:18:47;43.78;;;19.90;;
76403;SDS011;65232;48.358;2.122;2024-02-21T02:19:13;42.75;;;19.17;;
76403;SDS011;65232;48.358;2.122;2024-02-21T02:19:38;37.40;;;17.38;;
76403;SDS011;65232;48.358;2.122;2024-02-21T02:20:04;33.63;;;15.48;;
76403;SDS011;65232;48.358;2.122;2024-02-21T02:20:30;25.52;;;12.57;;
76403;SDS011;65232;48.358;2.122;2024-02-21T02:20:55;21.38;;;10.15;;
76403;SDS011;65232;48.358;2.122;2024-02-21T02:21:29;15.77;;;8.77;;
76403;SDS011;65232;48.358;2.122;2024-02-21T02:21:56;12.25;;;6.85;;
76403;SDS011;65232;48.358;2.122;2024-02-21T02:22:30;11.68;;;6.65;;
76403;SDS011;65232;48.358;2.122;2024-02-21T02:22:58;11.65;;;6.47;;
76403;SDS011;65232;48.358;2.122;2024-02-21T02:23:29;10.88;;;6.15;;
76403;SDS011;65232;48.358;2.122;2024-02-21T02:23:56;9.98;;;6.00;;
76403;SDS011;65232;48.358;2.122;2024-02-21T02:24:23;9.60;;;6.28;;
76403;SDS011;65232;48.358;2.122;2024-02-21T02:24:50;12.23;;;6.22;;
76403;SDS011;65232;48.358;2.122;2024-02-21T02:25:16;9.35;;;5.38;;
76403;SDS011;65232;48.358;2.122;2024-02-21T02:25:41;9.30;;;5.28;;
76403;SDS011;65232;48.358;2.122;2024-02-21T02:26:07;7.85;;;5.57;;
76403;SDS011;65232;48.358;2.122;2024-02-21T02:26:32;13.20;;;5.47;;
76403;SDS011;65232;48.358;2.122;2024-02-21T02:26:58;9.18;;;5.30;;
76403;SDS011;65232;48.358;2.122;2024-02-21T02:27:23;13.13;;;5.50;;
76403;SDS011;65232;48.358;2.122;2024-02-21T02:27:49;9.05;;;5.05;;
76403;SDS011;65232;48.358;2.122;2024-02-21T02:28:14;9.98;;;5.20;;
76403;SDS011;65232;48.358;2.122;2024-02-21T02:28:40;10.85;;;5.15;;
76403;SDS011;65232;48.358;2.122;2024-02-21T02:29:06;12.32;;;5.30;;
76403;SDS011;65232;48.358;2.122;2024-02-21T02:29:34;10.43;;;5.03;;
76403;SDS011;65232;48.358;2.122;2024-02-21T02:29:59;11.88;;;5.47;;
76403;SDS011;65232;48.358;2.122;2024-02-21T02:30:25;9.80;;;5.50;;
76403;SDS011;65232;48.358;2.122;2024-02-21T02:30:50;11.10;;;5.95;;
76403;SDS011;65232;48.358;2.122;2024-02-21T02:31:16;10.77;;;5.45;;
76403;SDS011;65232;48.358;2.122;2024-02-21T02:31:41;11.38;;;4.78;;
76403;SDS011;65232;48.358;2.122;2024-02-21T02:32:06;8.60;;;5.43;;
76403;SDS011;65232;48.358;2.122;2024-02-21T02:32:32;9.38;;;5.25;;
76403;SDS011;65232;48.358;2.122;2024-02-21T02:32:57;11.50;;;5.22;;
76403;SDS011;65232;48.358;2.122;2024-02-21T02:33:22;10.05;;;5.63;;
76403;SDS011;65232;48.358;2.122;2024-02-21T02:33:48;10.70;;;5.85;;
76403;SDS011;65232;48.358;2.122;2024-02-21T02:34:14;9.75;;;6.18;;